Time;durP1;ratioP1;P1;durP2;ratioP2;P2;SDS_P1;SDS_P2;PMS_P1;PMS_P2;Temp;Humidity;BMP_temperature;BMP_pressure;BME280_temperature;BME280_humidity;BME280_pressure;Samples;Min_cycle;Max_cycle;Signal;HPM_P1;HPM_P2
2021/07/14 00:02:04;;;;;;;8.23;2.80;;;17.80;99.90;;;;;;4926074;29;20468;-80
2021/07/14 00:04:33;;;;;;;3.80;2.50;;;17.80;99.90;;;;;;4928152;29;20435;-81
2021/07/14 00:06:59;;;;;;;2.57;2.37;;;17.70;99.90;;;;;;4933730;29;20436;-81
2021/07/14 00:09:26;;;;;;;3.37;2.60;;;17.70;99.90;;;;;;4934086;29;20845;-82
2021/07/14 00:11:56;;;;;;;4.33;2.27;;;17.70;99.90;;;;;;4921019;29;20443;-81
2021/07/14 00:17:21;;;;;;;2.30;2.10;;;17.70;99.90;;;;;;4899582;29;20484;-82
2021/07/14 00:22:32;;;;;;;3.70;2.67;;;17.70;99.90;;;;;;4925340;29;20431;-81
2021/07/14 00:24:59;;;;;;;2.70;2.10;;;17.70;99.90;;;;;;4931290;29;20471;-81
2021/07/14 00:27:26;;;;;;;6.00;2.60;;;17.60;99.90;;;;;;4930012;29;20441;-81
2021/07/14 00:29:55;;;;;;;3.83;2.63;;;17.70;99.90;;;;;;4926268;29;20480;-79
2021/07/14 00:32:22;;;;;;;2.30;2.10;;;17.70;99.90;;;;;;4916359;29;20545;-80
2021/07/14 00:34:50;;;;;;;2.63;2.43;;;17.70;99.90;;;;;;4954613;29;20421;-81
2021/07/14 00:37:18;;;;;;;2.87;2.33;;;17.60;99.90;;;;;;4936343;29;20434;-81
2021/07/14 00:39:45;;;;;;;2.37;2.13;;;17.60;99.90;;;;;;4918443;29;20833;-81
2021/07/14 00:42:13;;;;;;;4.53;2.13;;;17.60;99.90;;;;;;4931752;29;20944;-80
2021/07/14 00:44:40;;;;;;;3.00;2.00;;;17.60;99.90;;;;;;4931091;29;20809;-81
2021/07/14 00:47:07;;;;;;;3.47;2.27;;;17.60;99.90;;;;;;4930637;29;20472;-80
2021/07/14 00:49:35;;;;;;;3.40;2.03;;;17.50;99.90;;;;;;4921196;29;20438;-81
2021/07/14 00:52:04;;;;;;;4.80;1.80;;;17.50;99.90;;;;;;4922506;29;20441;-80
2021/07/14 00:54:30;;;;;;;2.43;2.23;;;17.50;99.90;;;;;;4909991;29;20441;-81
2021/07/14 00:56:58;;;;;;;3.33;1.93;;;17.50;99.90;;;;;;4934966;29;20442;-81
2021/07/14 00:59:24;;;;;;;2.03;1.83;;;17.50;99.90;;;;;;4933006;29;20496;-81
2021/07/14 01:01:51;;;;;;;6.13;2.07;;;17.60;99.90;;;;;;4929770;29;20441;-80
2021/07/14 01:04:25;;;;;;;4.03;2.10;;;17.50;99.90;;;;;;4931597;29;20476;-80
2021/07/14 01:06:57;;;;;;;3.23;2.30;;;17.50;99.90;;;;;;4928460;29;20467;-80
2021/07/14 01:09:32;;;;;;;2.03;1.83;;;17.50;99.90;;;;;;4932867;29;20445;-80
2021/07/14 01:12:07;;;;;;;2.23;2.03;;;17.50;99.90;;;;;;4931245;29;20438;-82
2021/07/14 01:14:42;;;;;;;3.53;1.80;;;17.50;99.90;;;;;;4931659;29;20427;-81
2021/07/14 01:17:12;;;;;;;2.77;1.70;;;17.50;99.90;;;;;;4913617;29;20832;-80
2021/07/14 01:19:59;;;;;;;1.77;1.67;;;17.50;99.90;;;;;;4929934;29;20443;-80
2021/07/14 01:22:34;;;;;;;2.70;1.60;;;17.60;99.90;;;;;;4932837;29;20446;-82
2021/07/14 01:25:07;;;;;;;3.00;1.77;;;17.60;99.90;;;;;;4913462;29;20448;-80
2021/07/14 01:27:38;;;;;;;3.43;1.90;;;17.60;99.90;;;;;;4897581;29;20480;-82
2021/07/14 01:30:10;;;;;;;2.83;2.20;;;17.50;99.90;;;;;;4907083;29;20919;-81
2021/07/14 01:32:40;;;;;;;3.17;2.30;;;17.50;99.90;;;;;;4891593;29;20417;-82
2021/07/14 01:35:11;;;;;;;2.97;2.07;;;17.50;99.90;;;;;;4912293;29;20851;-81
2021/07/14 01:37:40;;;;;;;2.90;2.50;;;17.50;99.90;;;;;;4932394;29;20443;-82
2021/07/14 01:40:10;;;;;;;2.20;2.00;;;17.50;99.90;;;;;;4930879;29;20480;-82
2021/07/14 01:42:39;;;;;;;4.83;2.97;;;17.50;99.90;;;;;;4931164;29;20448;-80
2021/07/14 01:45:07;;;;;;;2.33;2.07;;;17.40;99.90;;;;;;4932002;29;20452;-80
2021/07/14 01:47:35;;;;;;;3.40;2.27;;;17.40;99.90;;;;;;4926604;29;20486;-79
2021/07/14 01:50:04;;;;;;;3.07;2.77;;;17.40;99.90;;;;;;4931983;29;20453;-80
2021/07/14 01:52:32;;;;;;;2.63;2.40;;;17.40;99.90;;;;;;4931109;29;20983;-80
2021/07/14 01:55:02;;;;;;;2.53;1.83;;;17.30;99.90;;;;;;4932368;29;20462;-80
2021/07/14 01:57:30;;;;;;;2.20;2.00;;;17.40;99.90;;;;;;4935758;28;20464;-81
2021/07/14 01:59:59;;;;;;;5.30;2.00;;;17.40;99.90;;;;;;4929604;29;20456;-81
2021/07/14 02:02:28;;;;;;;2.43;2.23;;;17.40;99.90;;;;;;4931493;29;20472;-81
2021/07/14 02:04:56;;;;;;;4.37;2.03;;;17.40;99.90;;;;;;4933478;29;20495;-81
2021/07/14 02:07:26;;;;;;;2.20;2.00;;;17.40;99.90;;;;;;4931962;29;20937;-82
2021/07/14 02:09:55;;;;;;;2.13;1.90;;;17.40;99.90;;;;;;4917566;29;20794;-81
2021/07/14 02:12:24;;;;;;;2.23;1.83;;;17.40;99.90;;;;;;4931168;29;20806;-81
2021/07/14 02:14:55;;;;;;;3.27;2.00;;;17.30;99.90;;;;;;4933606;29;20436;-81
2021/07/14 02:17:26;;;;;;;2.10;1.87;;;17.30;99.90;;;;;;4914869;29;20455;-81
2021/07/14 02:19:56;;;;;;;3.33;1.93;;;17.30;99.90;;;;;;4935770;29;20417;-82
2021/07/14 02:22:23;;;;;;;2.40;2.20;;;17.30;99.90;;;;;;4917838;29;20444;-81
2021/07/14 02:24:50;;;;;;;2.80;2.13;;;17.30;99.90;;;;;;4936144;29;20482;-81
2021/07/14 02:27:17;;;;;;;2.33;2.13;;;17.30;99.90;;;;;;4950812;28;20470;-82
2021/07/14 02:29:44;;;;;;;2.93;2.10;;;17.30;99.90;;;;;;4933547;29;20437;-80
2021/07/14 02:32:19;;;;;;;2.03;1.93;;;17.30;99.90;;;;;;4935690;29;20514;-81
2021/07/14 02:34:49;;;;;;;4.47;2.40;;;17.20;99.90;;;;;;4904302;29;20954;-79
2021/07/14 02:37:35;;;;;;;2.90;2.40;;;17.30;99.90;;;;;;4894171;29;20459;-81
2021/07/14 02:40:05;;;;;;;5.30;2.37;;;17.20;99.90;;;;;;4925760;29;20814;-81
2021/07/14 02:42:34;;;;;;;2.37;2.13;;;17.30;99.90;;;;;;4918782;29;20422;-81
2021/07/14 02:45:04;;;;;;;4.10;1.90;;;17.20;99.90;;;;;;4932848;29;20972;-81
2021/07/14 02:47:36;;;;;;;2.30;2.00;;;17.20;99.90;;;;;;4938577;28;20843;-81
2021/07/14 02:50:09;;;;;;;2.20;2.00;;;17.20;99.90;;;;;;4956514;29;20500;-80
2021/07/14 02:52:40;;;;;;;4.23;2.27;;;17.30;99.90;;;;;;4932354;29;20470;-80
2021/07/14 02:55:08;;;;;;;2.43;2.13;;;17.20;99.90;;;;;;4920602;29;20813;-80
2021/07/14 02:57:38;;;;;;;4.47;2.10;;;17.20;99.90;;;;;;4930726;29;20544;-80
2021/07/14 03:00:07;;;;;;;3.10;2.27;;;17.20;99.90;;;;;;4931494;29;20787;-81
2021/07/14 03:02:36;;;;;;;7.93;2.40;;;17.20;99.90;;;;;;4934849;29;20429;-80
2021/07/14 03:05:06;;;;;;;2.43;2.10;;;17.20;99.90;;;;;;4934804;29;20486;-82
2021/07/14 03:07:34;;;;;;;4.33;2.10;;;17.20;99.90;;;;;;4932625;29;20875;-80
2021/07/14 03:10:03;;;;;;;3.57;2.20;;;17.20;99.90;;;;;;4932226;29;20976;-81
2021/07/14 03:12:31;;;;;;;2.50;2.00;;;17.30;99.90;;;;;;4927547;29;20449;-81
2021/07/14 03:15:02;;;;;;;2.00;1.87;;;17.20;99.90;;;;;;4933180;29;20423;-81
2021/07/14 03:17:32;;;;;;;3.60;2.07;;;17.20;99.90;;;;;;4925977;29;20481;-81
2021/07/14 03:20:01;;;;;;;3.40;2.20;;;17.20;99.90;;;;;;4915271;29;20428;-80
2021/07/14 03:22:30;;;;;;;3.40;2.47;;;17.20;99.90;;;;;;4918070;29;20438;-81
2021/07/14 03:24:58;;;;;;;3.87;2.43;;;17.20;99.90;;;;;;4933412;29;20470;-80
2021/07/14 03:27:26;;;;;;;2.10;2.00;;;17.20;99.90;;;;;;4932091;29;20433;-80
2021/07/14 03:29:54;;;;;;;2.37;2.17;;;17.20;99.90;;;;;;4931517;29;20470;-80
2021/07/14 03:32:21;;;;;;;4.17;2.40;;;17.20;99.90;;;;;;4917471;29;20899;-80
2021/07/14 03:34:49;;;;;;;2.97;2.23;;;17.20;99.90;;;;;;4932786;29;20470;-80
2021/07/14 03:37:16;;;;;;;2.60;2.10;;;17.20;99.90;;;;;;4934252;29;20514;-81
2021/07/14 03:39:46;;;;;;;2.20;2.00;;;17.20;99.90;;;;;;4939329;28;20509;-81
2021/07/14 03:42:16;;;;;;;7.53;2.33;;;17.20;99.90;;;;;;4931011;29;20453;-81
2021/07/14 03:44:48;;;;;;;2.60;2.40;;;17.20;99.90;;;;;;4933287;29;20475;-80
2021/07/14 03:47:16;;;;;;;4.03;2.50;;;17.20;99.90;;;;;;4923112;29;20468;-81
2021/07/14 03:49:45;;;;;;;3.20;2.90;;;17.20;99.90;;;;;;4918184;29;20435;-80
2021/07/14 03:52:14;;;;;;;2.40;2.20;;;17.20;99.90;;;;;;4900918;28;20555;-80
2021/07/14 03:54:41;;;;;;;5.03;2.60;;;17.20;99.90;;;;;;4923433;29;20448;-80
2021/07/14 03:57:11;;;;;;;3.53;2.47;;;17.30;99.90;;;;;;4914940;29;20414;-81
2021/07/14 03:59:38;;;;;;;3.30;2.50;;;17.30;99.90;;;;;;4915560;29;20459;-81
2021/07/14 04:02:07;;;;;;;3.33;3.03;;;17.30;99.90;;;;;;4933379;29;20418;-82
2021/07/14 04:04:34;;;;;;;3.73;2.23;;;17.30;99.90;;;;;;4931393;29;20499;-81
2021/07/14 04:07:06;;;;;;;4.07;2.73;;;17.30;99.90;;;;;;4938786;28;20785;-81
2021/07/14 04:09:33;;;;;;;4.00;2.80;;;17.30;99.90;;;;;;4936355;28;20476;-81
2021/07/14 04:12:02;;;;;;;3.97;2.67;;;17.30;99.90;;;;;;4928623;29;20459;-80
2021/07/14 04:14:31;;;;;;;2.70;2.50;;;17.30;99.90;;;;;;4919679;29;20466;-81
2021/07/14 04:16:59;;;;;;;3.80;2.80;;;17.30;99.90;;;;;;4932066;29;20769;-81
2021/07/14 04:19:26;;;;;;;8.03;3.10;;;17.30;99.90;;;;;;4916338;29;20445;-80
2021/07/14 04:21:54;;;;;;;2.87;2.67;;;17.30;99.90;;;;;;4915356;29;20471;-80
2021/07/14 04:24:21;;;;;;;3.10;2.50;;;17.30;99.90;;;;;;4914299;29;20449;-80
2021/07/14 04:26:48;;;;;;;4.40;2.77;;;17.30;99.90;;;;;;4914890;29;20823;-81
2021/07/14 04:29:16;;;;;;;6.40;3.00;;;17.30;99.90;;;;;;4912051;29;20490;-80
2021/07/14 04:31:45;;;;;;;5.70;3.07;;;17.30;99.90;;;;;;4886301;29;20531;-80
2021/07/14 04:34:12;;;;;;;3.73;2.97;;;17.20;99.90;;;;;;4889344;29;20465;-82
2021/07/14 04:36:41;;;;;;;2.97;2.77;;;17.30;99.90;;;;;;4922500;29;20481;-80
2021/07/14 04:39:08;;;;;;;7.83;3.20;;;17.30;99.90;;;;;;4888418;29;20466;-80
2021/07/14 04:41:36;;;;;;;2.53;2.33;;;17.20;99.90;;;;;;4903355;29;20857;-82
2021/07/14 04:44:04;;;;;;;2.67;2.47;;;17.20;99.90;;;;;;4922905;29;20689;-80
2021/07/14 04:46:31;;;;;;;5.10;2.70;;;17.30;99.90;;;;;;4916533;29;20547;-80
2021/07/14 04:49:00;;;;;;;6.63;3.20;;;17.20;99.90;;;;;;4933034;29;20456;-80
2021/07/14 04:51:27;;;;;;;4.33;3.37;;;17.30;99.90;;;;;;4920094;29;20450;-81
2021/07/14 04:53:54;;;;;;;5.70;3.17;;;17.30;99.90;;;;;;4921436;29;20463;-81
2021/07/14 04:56:21;;;;;;;6.70;3.17;;;17.30;99.90;;;;;;4907591;29;20456;-80
2021/07/14 04:58:49;;;;;;;3.67;3.37;;;17.30;99.90;;;;;;4918199;29;20442;-80
2021/07/14 05:01:18;;;;;;;4.70;3.40;;;17.30;99.90;;;;;;4915974;29;20470;-79
2021/07/14 05:03:47;;;;;;;4.23;3.57;;;17.30;99.90;;;;;;4912347;29;20452;-79
2021/07/14 05:06:16;;;;;;;6.40;3.63;;;17.30;99.90;;;;;;4915179;29;20458;-80
2021/07/14 05:08:43;;;;;;;3.43;3.13;;;17.30;99.90;;;;;;4913446;29;20457;-79
2021/07/14 05:11:10;;;;;;;3.47;3.17;;;17.30;99.90;;;;;;4931630;29;20441;-80
2021/07/14 05:13:37;;;;;;;3.40;3.10;;;17.30;99.90;;;;;;4933140;29;20856;-79
2021/07/14 05:16:05;;;;;;;10.80;4.87;;;17.30;99.90;;;;;;4932573;29;20448;-79
2021/07/14 05:18:33;;;;;;;5.93;4.40;;;17.40;99.90;;;;;;4934657;29;20451;-80
2021/07/14 05:21:00;;;;;;;6.23;4.00;;;17.40;99.90;;;;;;4926950;29;20949;-83
2021/07/14 05:23:28;;;;;;;3.90;3.60;;;17.40;99.90;;;;;;4918029;29;20773;-81
2021/07/14 05:25:55;;;;;;;8.20;3.60;;;17.40;99.90;;;;;;4913311;29;20491;-79
2021/07/14 05:28:22;;;;;;;6.43;4.20;;;17.40;99.90;;;;;;4928249;29;20454;-82
2021/07/14 05:30:49;;;;;;;6.00;3.80;;;17.40;99.90;;;;;;4932649;29;20926;-80
2021/07/14 05:33:17;;;;;;;6.40;3.63;;;17.40;99.90;;;;;;4935341;29;20851;-81
2021/07/14 05:35:44;;;;;;;5.20;3.53;;;17.40;99.90;;;;;;4955941;29;20456;-82
2021/07/14 05:38:12;;;;;;;3.50;3.20;;;17.50;99.90;;;;;;4950657;28;20500;-79
2021/07/14 05:40:40;;;;;;;8.67;3.87;;;17.50;99.90;;;;;;4938317;29;20835;-79
2021/07/14 05:43:07;;;;;;;3.60;3.30;;;17.50;99.90;;;;;;4938501;29;20810;-83
2021/07/14 05:45:34;;;;;;;4.40;3.93;;;17.50;99.90;;;;;;4933134;29;20829;-78
2021/07/14 05:48:01;;;;;;;5.47;3.40;;;17.50;99.90;;;;;;4934919;29;20479;-82
2021/07/14 05:50:28;;;;;;;4.37;3.77;;;17.50;99.90;;;;;;4929927;29;20979;-80
2021/07/14 05:52:55;;;;;;;11.20;4.30;;;17.50;99.90;;;;;;4935209;29;20517;-82
2021/07/14 05:55:22;;;;;;;4.10;3.70;;;17.50;99.90;;;;;;4929955;29;20457;-81
2021/07/14 05:57:51;;;;;;;6.03;4.70;;;17.50;99.90;;;;;;4927852;29;20467;-81
2021/07/14 06:00:19;;;;;;;4.10;3.60;;;17.50;99.90;;;;;;4934673;29;20505;-80
2021/07/14 06:02:46;;;;;;;4.83;4.13;;;17.50;99.90;;;;;;4930153;29;20454;-82
2021/07/14 06:05:13;;;;;;;5.33;3.83;;;17.50;99.90;;;;;;4933006;28;20984;-80
2021/07/14 06:07:43;;;;;;;4.60;4.20;;;17.50;99.90;;;;;;4948989;28;20541;-86
2021/07/14 06:10:12;;;;;;;7.00;3.93;;;17.50;99.90;;;;;;4950599;29;20522;-81
2021/07/14 06:12:39;;;;;;;4.87;4.00;;;17.50;99.90;;;;;;4925120;29;20451;-86
2021/07/14 06:15:08;;;;;;;10.03;3.70;;;17.50;99.90;;;;;;4928969;29;20480;-83
2021/07/14 06:17:35;;;;;;;4.43;3.97;;;17.50;99.90;;;;;;4916202;29;21014;-86
2021/07/14 06:20:03;;;;;;;4.13;3.73;;;17.50;99.90;;;;;;4917332;29;20452;-81
2021/07/14 06:22:30;;;;;;;5.47;3.73;;;17.50;99.90;;;;;;4926313;29;20523;-81
2021/07/14 06:24:57;;;;;;;4.00;3.60;;;17.60;99.90;;;;;;4932507;29;20469;-91
2021/07/14 06:27:24;;;;;;;4.40;4.00;;;17.60;99.90;;;;;;4928586;29;20466;-83
2021/07/14 06:29:50;;;;;;;5.30;3.60;;;17.60;99.90;;;;;;4931995;29;20808;-82
2021/07/14 06:32:19;;;;;;;15.40;4.20;;;17.60;99.90;;;;;;4931672;29;20467;-81
2021/07/14 06:34:46;;;;;;;4.97;3.83;;;17.60;99.90;;;;;;4934628;29;20873;-84
2021/07/14 06:37:12;;;;;;;4.80;3.90;;;17.60;99.90;;;;;;4927920;29;20963;-81
2021/07/14 06:39:39;;;;;;;5.73;4.00;;;17.70;99.90;;;;;;4920843;29;21026;-83
2021/07/14 06:42:06;;;;;;;7.53;4.17;;;17.70;99.90;;;;;;4930145;29;20546;-86
2021/07/14 06:44:37;;;;;;;4.20;3.80;;;17.70;99.90;;;;;;4933888;29;20504;-81
2021/07/14 06:47:04;;;;;;;5.63;3.93;;;17.70;99.90;;;;;;4919763;29;20466;-84
2021/07/14 06:49:33;;;;;;;8.67;4.27;;;17.70;99.90;;;;;;4929594;29;20845;-83
2021/07/14 06:52:00;;;;;;;4.03;3.63;;;17.70;99.90;;;;;;4928472;29;20469;-80
2021/07/14 06:54:27;;;;;;;4.17;3.53;;;17.70;99.90;;;;;;4929337;29;20849;-82
2021/07/14 06:56:54;;;;;;;3.70;3.40;;;17.70;99.90;;;;;;4931989;29;21199;-84
2021/07/14 06:59:21;;;;;;;6.80;3.70;;;17.80;99.90;;;;;;4930526;29;20482;-81
2021/07/14 07:01:48;;;;;;;4.83;3.70;;;17.80;99.90;;;;;;4921523;29;20446;-83
2021/07/14 07:04:15;;;;;;;11.40;3.77;;;17.80;99.90;;;;;;4918592;29;20456;-81
2021/07/14 07:06:43;;;;;;;4.73;3.53;;;17.80;99.90;;;;;;4936357;29;20466;-85
2021/07/14 07:09:10;;;;;;;5.20;3.20;;;17.80;99.90;;;;;;4932360;29;20470;-83
2021/07/14 07:11:37;;;;;;;4.53;3.70;;;17.80;99.90;;;;;;4933229;29;20986;-82
2021/07/14 07:14:04;;;;;;;11.03;4.30;;;17.80;99.90;;;;;;4931641;29;20475;-82
2021/07/14 07:16:31;;;;;;;7.43;4.23;;;17.80;99.90;;;;;;4931131;29;20468;-80
2021/07/14 07:18:59;;;;;;;8.40;3.43;;;17.80;99.90;;;;;;4930423;29;20454;-83
2021/07/14 07:21:31;;;;;;;5.53;3.90;;;17.80;99.90;;;;;;4931541;29;20443;-80
2021/07/14 07:24:00;;;;;;;4.20;3.80;;;17.80;99.90;;;;;;4929838;29;20425;-79
2021/07/14 07:26:27;;;;;;;4.30;3.90;;;17.80;99.90;;;;;;4931460;29;20456;-78
2021/07/14 07:28:58;;;;;;;4.60;3.63;;;17.80;99.90;;;;;;4927764;29;20881;-78
2021/07/14 07:31:26;;;;;;;5.47;3.80;;;17.80;99.90;;;;;;4933862;29;20461;-80
2021/07/14 07:33:53;;;;;;;5.90;3.70;;;17.80;99.90;;;;;;4931635;29;20464;-82
2021/07/14 07:36:20;;;;;;;5.50;3.80;;;17.80;99.90;;;;;;4931743;29;20534;-80
2021/07/14 07:38:47;;;;;;;3.57;3.27;;;17.80;99.90;;;;;;4925573;29;20987;-79
2021/07/14 07:41:16;;;;;;;3.70;3.20;;;17.80;99.90;;;;;;4921842;29;20435;-79
2021/07/14 07:43:43;;;;;;;4.50;3.13;;;17.80;99.90;;;;;;4927042;29;20446;-79
2021/07/14 07:46:10;;;;;;;3.57;3.27;;;17.80;99.90;;;;;;4922811;29;20464;-81
2021/07/14 07:48:37;;;;;;;5.20;3.20;;;17.80;99.90;;;;;;4929109;29;20796;-80
2021/07/14 07:51:05;;;;;;;5.87;3.10;;;17.80;99.90;;;;;;4929662;29;20567;-79
2021/07/14 07:53:32;;;;;;;3.57;3.27;;;17.80;99.90;;;;;;4914099;29;20421;-79
2021/07/14 07:56:00;;;;;;;2.67;2.43;;;17.80;99.90;;;;;;4908548;29;20468;-79
2021/07/14 07:58:28;;;;;;;3.40;2.00;;;17.80;99.90;;;;;;4932249;29;20826;-78
2021/07/14 08:00:56;;;;;;;1.90;1.70;;;17.70;99.90;;;;;;4914231;29;20967;-79
2021/07/14 08:03:23;;;;;;;2.63;2.20;;;17.70;99.90;;;;;;4933472;29;20918;-79
2021/07/14 08:05:49;;;;;;;3.90;2.10;;;17.70;99.90;;;;;;4928569;29;21008;-79
2021/07/14 08:08:17;;;;;;;3.87;1.60;;;17.70;99.90;;;;;;4920630;29;20806;-79
2021/07/14 08:10:44;;;;;;;2.20;2.00;;;17.70;99.90;;;;;;4919465;29;20472;-79
2021/07/14 08:13:12;;;;;;;1.70;1.60;;;17.70;99.90;;;;;;4929109;29;20462;-77
2021/07/14 08:15:40;;;;;;;1.80;1.70;;;17.70;99.90;;;;;;4924796;29;20464;-78
2021/07/14 08:18:07;;;;;;;2.07;1.73;;;17.70;99.90;;;;;;4915039;29;20482;-80
2021/07/14 08:20:37;;;;;;;1.60;1.50;;;17.60;99.90;;;;;;4914390;29;20477;-81
2021/07/14 08:23:04;;;;;;;1.93;1.73;;;17.70;99.90;;;;;;4928632;29;20939;-80
2021/07/14 08:25:31;;;;;;;3.07;2.00;;;17.70;99.90;;;;;;4931498;29;20481;-81
2021/07/14 08:27:58;;;;;;;2.40;1.83;;;17.70;99.90;;;;;;4920486;29;20488;-79
2021/07/14 08:30:24;;;;;;;2.20;2.00;;;17.70;99.90;;;;;;4931276;29;20504;-80
2021/07/14 08:32:53;;;;;;;2.53;2.33;;;17.60;99.90;;;;;;4926048;29;20439;-80
2021/07/14 08:35:20;;;;;;;2.30;2.10;;;17.70;99.90;;;;;;4932924;29;20975;-79
2021/07/14 08:37:48;;;;;;;2.00;1.90;;;17.70;99.90;;;;;;4928502;29;20571;-82
2021/07/14 08:40:15;;;;;;;2.87;2.57;;;17.70;99.90;;;;;;4888464;29;20465;-78
2021/07/14 08:42:43;;;;;;;3.10;2.30;;;17.70;99.90;;;;;;4888795;29;20465;-79
2021/07/14 08:45:16;;;;;;;2.17;1.90;;;17.70;99.90;;;;;;4893128;29;20486;-80
2021/07/14 08:47:44;;;;;;;2.60;1.77;;;17.80;99.90;;;;;;4899396;29;20489;-81
2021/07/14 08:50:13;;;;;;;2.67;1.90;;;17.80;99.90;;;;;;4891174;29;21016;-79
2021/07/14 08:52:42;;;;;;;2.10;1.90;;;17.80;99.90;;;;;;4887243;29;20564;-80
2021/07/14 08:55:12;;;;;;;2.80;2.10;;;17.80;99.90;;;;;;4886707;29;20494;-80
2021/07/14 08:57:39;;;;;;;2.17;1.97;;;17.90;99.90;;;;;;4892469;29;20999;-79
2021/07/14 09:00:10;;;;;;;3.30;2.10;;;17.90;99.90;;;;;;4890941;29;20471;-78
2021/07/14 09:02:41;;;;;;;2.77;2.43;;;17.80;99.90;;;;;;4891361;29;20443;-78
2021/07/14 09:05:10;;;;;;;4.40;2.00;;;17.90;99.90;;;;;;4895261;29;20814;-80
2021/07/14 09:07:39;;;;;;;2.70;2.50;;;17.90;99.90;;;;;;4888232;29;20465;-79
2021/07/14 09:10:09;;;;;;;3.73;2.37;;;18.00;99.90;;;;;;4895789;29;20458;-79
2021/07/14 09:12:37;;;;;;;2.90;2.60;;;18.00;99.90;;;;;;4894997;29;20925;-79
2021/07/14 09:15:07;;;;;;;2.70;2.03;;;18.00;99.90;;;;;;4892844;29;20437;-77
2021/07/14 09:17:34;;;;;;;2.10;1.90;;;18.00;99.90;;;;;;4891177;29;20962;-79
2021/07/14 09:20:04;;;;;;;4.07;2.40;;;18.10;99.90;;;;;;4890193;29;20913;-79
2021/07/14 09:22:32;;;;;;;2.87;2.20;;;18.10;99.90;;;;;;4893795;29;20607;-79
2021/07/14 09:25:07;;;;;;;2.40;2.17;;;18.10;99.90;;;;;;4887646;29;20882;-81
2021/07/14 09:27:36;;;;;;;2.57;2.10;;;18.10;99.90;;;;;;4900428;29;20474;-79
2021/07/14 09:30:10;;;;;;;2.87;2.13;;;18.10;99.90;;;;;;4895485;29;20805;-78
2021/07/14 09:32:47;;;;;;;3.00;2.33;;;18.10;99.90;;;;;;4882905;29;20843;-80
2021/07/14 09:35:25;;;;;;;3.77;2.57;;;18.10;99.90;;;;;;4894713;29;20439;-79
2021/07/14 09:37:52;;;;;;;2.77;2.50;;;18.10;99.90;;;;;;4891608;29;20482;-81
2021/07/14 09:40:21;;;;;;;3.57;2.93;;;18.20;99.90;;;;;;4912266;29;20478;-78
2021/07/14 09:42:51;;;;;;;3.60;3.07;;;18.20;99.90;;;;;;4933910;29;20783;-80
2021/07/14 09:45:35;;;;;;;3.30;3.00;;;18.20;99.90;;;;;;4918813;29;20455;-77
2021/07/14 09:48:02;;;;;;;4.13;3.20;;;18.10;99.90;;;;;;4925075;29;20493;-78
2021/07/14 09:50:32;;;;;;;3.20;2.90;;;18.10;99.90;;;;;;4932825;29;20446;-77
2021/07/14 09:53:01;;;;;;;3.87;3.47;;;18.10;99.90;;;;;;4934572;29;21010;-79
2021/07/14 09:55:30;;;;;;;4.17;3.50;;;18.10;99.90;;;;;;4935034;29;20457;-77
2021/07/14 09:58:13;;;;;;;3.63;3.00;;;18.20;99.90;;;;;;4927934;29;20930;-79
2021/07/14 10:00:43;;;;;;;3.23;2.93;;;18.10;99.90;;;;;;4908186;29;20469;-80
2021/07/14 10:03:16;;;;;;;3.77;3.03;;;18.20;99.90;;;;;;4913689;29;20954;-81
2021/07/14 10:05:43;;;;;;;4.70;2.90;;;18.20;99.90;;;;;;4927708;29;20817;-77
2021/07/14 10:08:16;;;;;;;3.47;3.17;;;18.10;99.90;;;;;;4934802;29;20636;-78
2021/07/14 10:10:45;;;;;;;3.57;3.07;;;18.20;99.90;;;;;;4915794;29;20906;-78
2021/07/14 10:13:12;;;;;;;4.00;3.67;;;18.20;99.90;;;;;;4925006;29;20440;-79
2021/07/14 10:15:40;;;;;;;4.07;3.63;;;18.20;99.90;;;;;;4932120;29;20491;-78
2021/07/14 10:18:11;;;;;;;4.20;3.33;;;18.20;99.90;;;;;;4914893;29;21073;-78
2021/07/14 10:20:40;;;;;;;3.80;3.47;;;18.20;99.90;;;;;;4932814;29;20446;-77
2021/07/14 10:23:09;;;;;;;3.97;3.27;;;18.20;99.90;;;;;;4920770;29;20473;-78
2021/07/14 10:25:38;;;;;;;6.93;3.40;;;18.20;99.90;;;;;;4916490;29;20441;-76
2021/07/14 10:28:09;;;;;;;3.50;3.13;;;18.30;99.90;;;;;;4913038;29;20473;-79
2021/07/14 10:30:37;;;;;;;3.30;3.00;;;18.30;99.90;;;;;;4927285;29;20467;-79
2021/07/14 10:33:06;;;;;;;3.50;3.10;;;18.20;99.90;;;;;;4892044;29;20553;-77
2021/07/14 10:35:38;;;;;;;4.20;3.20;;;18.30;99.90;;;;;;4933054;29;20462;-78
2021/07/14 10:38:06;;;;;;;4.07;3.67;;;18.20;99.90;;;;;;4934324;29;20476;-76
2021/07/14 10:40:34;;;;;;;4.40;3.37;;;18.30;99.90;;;;;;4900966;29;20498;-79
2021/07/14 10:43:00;;;;;;;4.90;3.80;;;18.30;99.90;;;;;;4916922;29;20462;-78
2021/07/14 10:45:29;;;;;;;3.20;2.80;;;18.30;99.90;;;;;;4928516;29;20478;-77
2021/07/14 10:47:57;;;;;;;3.50;3.20;;;18.30;99.90;;;;;;4930211;29;20493;-78
2021/07/14 10:50:25;;;;;;;4.50;3.20;;;18.30;99.90;;;;;;4926501;29;20532;-79
2021/07/14 10:52:52;;;;;;;4.97;3.73;;;18.30;99.90;;;;;;4930737;29;20484;-81
2021/07/14 10:55:22;;;;;;;3.90;3.40;;;18.30;99.90;;;;;;4916914;29;20454;-81
2021/07/14 10:57:51;;;;;;;5.70;3.67;;;18.30;99.90;;;;;;4930745;29;20489;-77
2021/07/14 11:00:18;;;;;;;4.73;3.50;;;18.40;99.90;;;;;;4936226;29;20532;-79
2021/07/14 11:02:48;;;;;;;4.87;3.77;;;18.30;99.90;;;;;;4914068;29;20462;-78
2021/07/14 11:05:17;;;;;;;5.50;3.70;;;18.40;99.90;;;;;;4935552;29;20468;-78
2021/07/14 11:07:46;;;;;;;5.80;4.00;;;18.40;99.90;;;;;;4935891;29;20487;-81
2021/07/14 11:10:33;;;;;;;4.70;3.90;;;18.40;99.90;;;;;;4927803;29;20465;-78
2021/07/14 11:13:21;;;;;;;5.10;3.60;;;18.40;99.90;;;;;;4914473;29;20506;-80
2021/07/14 11:15:48;;;;;;;5.13;3.60;;;18.40;99.90;;;;;;4917823;29;20812;-80
2021/07/14 11:18:35;;;;;;;6.70;4.20;;;18.30;99.90;;;;;;4934656;29;20465;-78
2021/07/14 11:21:03;;;;;;;5.33;3.50;;;18.40;99.90;;;;;;4917634;29;20437;-78
2021/07/14 11:23:30;;;;;;;9.20;4.10;;;18.30;99.90;;;;;;4925720;29;20468;-78
2021/07/14 11:25:58;;;;;;;4.70;3.70;;;18.40;99.90;;;;;;4934395;29;20486;-79
2021/07/14 11:28:26;;;;;;;4.13;3.70;;;18.40;99.90;;;;;;4936485;29;20474;-80
2021/07/14 11:30:55;;;;;;;7.00;4.13;;;18.40;99.90;;;;;;4933543;29;20473;-80
2021/07/14 11:33:27;;;;;;;5.67;4.07;;;18.30;99.90;;;;;;4915076;29;20451;-79
2021/07/14 11:35:59;;;;;;;5.77;5.17;;;18.30;99.90;;;;;;4908528;29;20490;-80
2021/07/14 11:38:29;;;;;;;5.60;4.40;;;18.40;99.90;;;;;;4907464;29;20524;-77
2021/07/14 11:40:58;;;;;;;5.40;4.20;;;18.40;99.90;;;;;;4932293;29;20478;-77
2021/07/14 11:43:41;;;;;;;5.93;4.10;;;18.30;99.90;;;;;;4902519;29;20536;-78
2021/07/14 11:46:11;;;;;;;4.50;3.47;;;18.30;99.90;;;;;;4904361;29;20498;-78
2021/07/14 11:48:40;;;;;;;2.97;2.67;;;18.30;99.90;;;;;;4911892;29;20478;-79
2021/07/14 11:51:20;;;;;;;2.83;2.57;;;18.30;99.90;;;;;;4916179;29;20464;-79
2021/07/14 11:53:48;;;;;;;2.87;2.57;;;18.20;99.90;;;;;;4932905;29;20429;-78
2021/07/14 11:56:18;;;;;;;2.50;2.30;;;18.20;99.90;;;;;;4934194;29;20450;-77
2021/07/14 11:58:49;;;;;;;2.63;2.43;;;18.20;99.90;;;;;;4924098;29;20482;-79
2021/07/14 12:01:45;;;;;;;2.60;2.30;;;18.20;99.90;;;;;;4932962;29;20466;-78
2021/07/14 12:04:12;;;;;;;2.40;2.20;;;18.20;99.90;;;;;;4916235;29;20927;-79
2021/07/14 12:06:43;;;;;;;2.97;2.30;;;18.20;99.90;;;;;;4927380;29;20476;-78
2021/07/14 12:09:27;;;;;;;3.70;2.60;;;18.10;99.90;;;;;;4914872;29;20571;-78
2021/07/14 12:12:16;;;;;;;2.53;2.30;;;18.10;99.90;;;;;;4891222;29;20472;-78
2021/07/14 12:14:45;;;;;;;3.67;3.07;;;18.10;99.90;;;;;;4896214;29;20805;-78
2021/07/14 12:17:14;;;;;;;3.03;2.73;;;18.10;99.90;;;;;;4908275;29;20467;-78
2021/07/14 12:19:43;;;;;;;4.40;3.40;;;18.10;99.90;;;;;;4911823;29;20904;-79
2021/07/14 12:22:12;;;;;;;5.80;4.30;;;18.10;99.90;;;;;;4907075;29;20516;-79
2021/07/14 12:24:43;;;;;;;8.90;5.13;;;18.10;99.90;;;;;;4896269;29;20471;-79
2021/07/14 12:27:15;;;;;;;15.03;8.30;;;18.10;99.90;;;;;;4900152;29;20475;-77
2021/07/14 12:29:46;;;;;;;12.00;7.53;;;18.10;99.90;;;;;;4886099;29;20456;-77
2021/07/14 12:32:13;;;;;;;21.23;9.00;;;18.10;99.90;;;;;;4913365;29;20468;-78
2021/07/14 12:34:40;;;;;;;16.07;8.57;;;18.10;99.90;;;;;;4934041;29;20454;-77
2021/07/14 12:37:08;;;;;;;14.33;8.80;;;18.10;99.90;;;;;;4934272;29;20962;-77
2021/07/14 12:39:37;;;;;;;12.10;8.30;;;18.20;99.90;;;;;;4934635;29;21086;-77
2021/07/14 12:42:06;;;;;;;15.53;10.10;;;18.20;99.90;;;;;;4916330;29;21141;-78
2021/07/14 12:44:34;;;;;;;11.80;7.13;;;18.20;99.90;;;;;;4916525;29;20438;-81
2021/07/14 12:47:16;;;;;;;7.93;5.93;;;18.20;99.90;;;;;;4927504;29;20485;-78
2021/07/14 12:49:45;;;;;;;5.10;4.40;;;18.20;99.90;;;;;;4912257;29;20465;-79
2021/07/14 12:52:15;;;;;;;5.77;3.70;;;18.10;99.90;;;;;;4901034;29;20780;-79
2021/07/14 12:54:46;;;;;;;3.87;3.27;;;18.10;99.90;;;;;;4922534;29;20470;-78
2021/07/14 12:57:17;;;;;;;4.80;2.73;;;18.10;99.90;;;;;;4928904;29;20450;-78
2021/07/14 12:59:54;;;;;;;3.30;2.70;;;18.10;99.90;;;;;;4913833;29;20458;-78
2021/07/14 13:02:23;;;;;;;2.87;2.57;;;18.10;99.90;;;;;;4924524;29;20456;-79